sensor_id;sensor_type;location;lat;lon;timestamp;temperature;humidity
843;DHT22;407;48.884;9.126;2023-02-08T00:01:51;-0.40;99.90
843;DHT22;407;48.884;9.126;2023-02-08T00:04:17;-1.70;99.90
843;DHT22;407;48.884;9.126;2023-02-08T00:06:43;-1.60;99.90
843;DHT22;407;48.884;9.126;2023-02-08T00:09:08;-1.70;1.00
843;DHT22;407;48.884;9.126;2023-02-08T00:11:34;-1.70;1.00
843;DHT22;407;48.884;9.126;2023-02-08T00:14:00;-1.90;1.00
843;DHT22;407;48.884;9.126;2023-02-08T00:16:25;-1.90;1.00
843;DHT22;407;48.884;9.126;2023-02-08T00:18:51;-1.90;1.00
843;DHT22;407;48.884;9.126;2023-02-08T00:21:18;-1.90;1.00
843;DHT22;407;48.884;9.126;2023-02-08T00:23:45;-1.90;1.00
843;DHT22;407;48.884;9.126;2023-02-08T00:26:11;-1.90;1.00
843;DHT22;407;48.884;9.126;2023-02-08T00:28:36;-2.10;1.00
843;DHT22;407;48.884;9.126;2023-02-08T00:31:02;-1.90;1.00
843;DHT22;407;48.884;9.126;2023-02-08T00:33:28;-2.00;1.00
843;DHT22;407;48.884;9.126;2023-02-08T00:36:00;-2.00;1.00
843;DHT22;407;48.884;9.126;2023-02-08T00:38:27;-2.10;1.00
843;DHT22;407;48.884;9.126;2023-02-08T00:40:52;-2.20;1.00
843;DHT22;407;48.884;9.126;2023-02-08T00:43:18;-2.30;1.00
843;DHT22;407;48.884;9.126;2023-02-08T00:45:44;-2.40;1.00
843;DHT22;407;48.884;9.126;2023-02-08T00:48:09;-2.50;1.00
843;DHT22;407;48.884;9.126;2023-02-08T00:50:35;-2.60;1.00
843;DHT22;407;48.884;9.126;2023-02-08T00:53:00;-2.60;99.90
843;DHT22;407;48.884;9.126;2023-02-08T00:55:27;-2.60;99.90
843;DHT22;407;48.884;9.126;2023-02-08T00:57:52;-2.50;99.90
843;DHT22;407;48.884;9.126;2023-02-08T01:00:18;-2.70;99.90
843;DHT22;407;48.884;9.126;2023-02-08T01:02:44;-2.50;99.90
843;DHT22;407;48.884;9.126;2023-02-08T01:05:09;-2.60;99.90
843;DHT22;407;48.884;9.126;2023-02-08T01:07:38;-2.60;99.90
843;DHT22;407;48.884;9.126;2023-02-08T01:10:05;-2.70;1.00
843;DHT22;407;48.884;9.126;2023-02-08T01:12:32;-2.60;1.00
843;DHT22;407;48.884;9.126;2023-02-08T01:14:57;-2.60;1.00
843;DHT22;407;48.884;9.126;2023-02-08T01:17:23;-2.50;81.80
843;DHT22;407;48.884;9.126;2023-02-08T01:19:48;-2.60;99.90
843;DHT22;407;48.884;9.126;2023-02-08T01:22:14;-2.60;99.90
843;DHT22;407;48.884;9.126;2023-02-08T01:24:39;-2.60;99.90
843;DHT22;407;48.884;9.126;2023-02-08T01:27:05;-2.50;99.90
843;DHT22;407;48.884;9.126;2023-02-08T01:29:31;-2.50;99.90
843;DHT22;407;48.884;9.126;2023-02-08T01:31:56;-2.50;99.90
843;DHT22;407;48.884;9.126;2023-02-08T01:34:22;-2.60;99.90
843;DHT22;407;48.884;9.126;2023-02-08T01:36:47;-2.60;99.90
843;DHT22;407;48.884;9.126;2023-02-08T01:39:13;-2.60;99.90
843;DHT22;407;48.884;9.126;2023-02-08T01:41:41;-2.30;99.90
843;DHT22;407;48.884;9.126;2023-02-08T01:46:46;-2.60;99.90
843;DHT22;407;48.884;9.126;2023-02-08T01:49:19;-2.60;99.90
843;DHT22;407;48.884;9.126;2023-02-08T01:52:09;-2.80;99.90
843;DHT22;407;48.884;9.126;2023-02-08T01:54:39;-2.70;99.90
843;DHT22;407;48.884;9.126;2023-02-08T01:57:07;-2.70;99.90
843;DHT22;407;48.884;9.126;2023-02-08T01:59:40;-2.70;99.90
843;DHT22;407;48.884;9.126;2023-02-08T02:02:10;-2.80;99.90
843;DHT22;407;48.884;9.126;2023-02-08T02:04:40;-2.70;99.90
843;DHT22;407;48.884;9.126;2023-02-08T02:07:06;-2.80;99.90
843;DHT22;407;48.884;9.126;2023-02-08T02:09:51;-2.70;99.90
843;DHT22;407;48.884;9.126;2023-02-08T02:12:18;-2.70;99.90
843;DHT22;407;48.884;9.126;2023-02-08T02:14:45;-2.70;81.40
843;DHT22;407;48.884;9.126;2023-02-08T02:17:12;-2.60;47.20
843;DHT22;407;48.884;9.126;2023-02-08T02:33:42;-2.80;99.90
843;DHT22;407;48.884;9.126;2023-02-08T02:38:59;-2.90;99.90
843;DHT22;407;48.884;9.126;2023-02-08T02:44:55;-2.90;99.90
843;DHT22;407;48.884;9.126;2023-02-08T02:50:33;-3.10;99.90
843;DHT22;407;48.884;9.126;2023-02-08T02:55:41;-3.30;99.90
843;DHT22;407;48.884;9.126;2023-02-08T02:58:09;-3.40;1.00
843;DHT22;407;48.884;9.126;2023-02-08T03:00:36;-3.40;1.00
843;DHT22;407;48.884;9.126;2023-02-08T03:03:02;-3.40;1.00
843;DHT22;407;48.884;9.126;2023-02-08T03:05:28;-3.40;1.00
843;DHT22;407;48.884;9.126;2023-02-08T03:08:05;-3.40;1.00
843;DHT22;407;48.884;9.126;2023-02-08T03:21:25;-3.40;99.90
843;DHT22;407;48.884;9.126;2023-02-08T03:24:03;-3.40;99.90
843;DHT22;407;48.884;9.126;2023-02-08T03:26:40;-3.50;99.90
843;DHT22;407;48.884;9.126;2023-02-08T03:31:59;-3.40;99.90
843;DHT22;407;48.884;9.126;2023-02-08T03:37:21;-3.40;99.90
843;DHT22;407;48.884;9.126;2023-02-08T03:39:51;-3.40;99.90
843;DHT22;407;48.884;9.126;2023-02-08T03:42:22;-3.50;99.90
843;DHT22;407;48.884;9.126;2023-02-08T03:45:06;-3.50;99.90
843;DHT22;407;48.884;9.126;2023-02-08T03:47:37;-3.60;99.90
843;DHT22;407;48.884;9.126;2023-02-08T03:50:08;-3.60;99.90
843;DHT22;407;48.884;9.126;2023-02-08T03:52:35;-3.60;99.90
843;DHT22;407;48.884;9.126;2023-02-08T03:55:08;-3.60;99.90
843;DHT22;407;48.884;9.126;2023-02-08T03:57:47;-3.50;99.90
843;DHT22;407;48.884;9.126;2023-02-08T04:00:15;-3.60;99.90
843;DHT22;407;48.884;9.126;2023-02-08T04:02:58;-3.60;1.00
843;DHT22;407;48.884;9.126;2023-02-08T04:05:26;-3.70;1.00
843;DHT22;407;48.884;9.126;2023-02-08T04:07:52;-3.60;1.00
843;DHT22;407;48.884;9.126;2023-02-08T04:10:18;-3.50;1.00
843;DHT22;407;48.884;9.126;2023-02-08T04:12:47;-3.60;1.00
843;DHT22;407;48.884;9.126;2023-02-08T04:15:13;-3.50;1.00
843;DHT22;407;48.884;9.126;2023-02-08T04:17:39;-3.50;1.00
843;DHT22;407;48.884;9.126;2023-02-08T04:20:05;-3.50;99.90
843;DHT22;407;48.884;9.126;2023-02-08T04:22:31;-3.60;99.90
843;DHT22;407;48.884;9.126;2023-02-08T04:24:58;-3.60;99.90
843;DHT22;407;48.884;9.126;2023-02-08T04:27:24;-3.60;99.90
843;DHT22;407;48.884;9.126;2023-02-08T04:29:49;-3.60;99.90
843;DHT22;407;48.884;9.126;2023-02-08T04:32:15;-3.60;99.90
843;DHT22;407;48.884;9.126;2023-02-08T04:34:40;-3.80;99.90
843;DHT22;407;48.884;9.126;2023-02-08T04:37:06;-3.70;99.90
843;DHT22;407;48.884;9.126;2023-02-08T04:39:32;-3.80;99.90
843;DHT22;407;48.884;9.126;2023-02-08T04:41:58;-3.90;99.90
843;DHT22;407;48.884;9.126;2023-02-08T04:44:24;-3.80;99.90
843;DHT22;407;48.884;9.126;2023-02-08T04:46:50;-3.90;99.90
843;DHT22;407;48.884;9.126;2023-02-08T04:49:15;-3.90;99.90
843;DHT22;407;48.884;9.126;2023-02-08T04:51:41;-3.90;99.90
843;DHT22;407;48.884;9.126;2023-02-08T04:54:07;-3.90;1.00
843;DHT22;407;48.884;9.126;2023-02-08T04:56:32;-3.90;1.00
843;DHT22;407;48.884;9.126;2023-02-08T04:58:59;-3.90;1.00
843;DHT22;407;48.884;9.126;2023-02-08T05:01:25;-3.90;1.00
843;DHT22;407;48.884;9.126;2023-02-08T05:03:50;-3.90;1.00
843;DHT22;407;48.884;9.126;2023-02-08T05:06:16;-4.00;1.00
843;DHT22;407;48.884;9.126;2023-02-08T05:08:41;-3.90;1.00
843;DHT22;407;48.884;9.126;2023-02-08T05:11:07;-3.90;1.00
843;DHT22;407;48.884;9.126;2023-02-08T05:13:33;-3.90;1.00
843;DHT22;407;48.884;9.126;2023-02-08T05:15:58;-3.90;1.00
843;DHT22;407;48.884;9.126;2023-02-08T05:18:24;-3.90;1.00
843;DHT22;407;48.884;9.126;2023-02-08T05:20:57;-3.90;99.90
843;DHT22;407;48.884;9.126;2023-02-08T05:23:24;-3.80;99.90
843;DHT22;407;48.884;9.126;2023-02-08T05:25:50;-3.80;99.90
843;DHT22;407;48.884;9.126;2023-02-08T05:28:15;-3.90;99.90
843;DHT22;407;48.884;9.126;2023-02-08T05:30:41;-4.00;99.90
843;DHT22;407;48.884;9.126;2023-02-08T05:33:07;-4.00;99.90
843;DHT22;407;48.884;9.126;2023-02-08T05:35:32;-4.00;99.90
843;DHT22;407;48.884;9.126;2023-02-08T05:37:58;-2.80;1.00
843;DHT22;407;48.884;9.126;2023-02-08T05:40:24;-4.10;1.00
843;DHT22;407;48.884;9.126;2023-02-08T05:42:49;-4.00;1.00
843;DHT22;407;48.884;9.126;2023-02-08T05:45:15;-4.00;1.00
843;DHT22;407;48.884;9.126;2023-02-08T05:47:40;-4.10;1.00
843;DHT22;407;48.884;9.126;2023-02-08T05:50:08;-4.00;1.00
843;DHT22;407;48.884;9.126;2023-02-08T05:52:33;-3.90;1.00
843;DHT22;407;48.884;9.126;2023-02-08T05:54:59;-3.80;1.00
843;DHT22;407;48.884;9.126;2023-02-08T05:57:25;-3.90;1.00
843;DHT22;407;48.884;9.126;2023-02-08T05:59:50;-4.00;1.00
843;DHT22;407;48.884;9.126;2023-02-08T06:02:16;-4.00;16.20
843;DHT22;407;48.884;9.126;2023-02-08T06:04:41;-4.00;79.40
843;DHT22;407;48.884;9.126;2023-02-08T06:07:07;-4.10;99.90
843;DHT22;407;48.884;9.126;2023-02-08T06:09:32;-4.00;99.90
843;DHT22;407;48.884;9.126;2023-02-08T06:11:58;-4.10;99.90
843;DHT22;407;48.884;9.126;2023-02-08T06:14:24;-4.20;99.90
843;DHT22;407;48.884;9.126;2023-02-08T06:16:49;-4.10;1.00
843;DHT22;407;48.884;9.126;2023-02-08T06:19:15;-3.90;1.00
843;DHT22;407;48.884;9.126;2023-02-08T06:21:40;-3.90;99.90
843;DHT22;407;48.884;9.126;2023-02-08T06:24:06;-4.00;99.90
843;DHT22;407;48.884;9.126;2023-02-08T06:26:32;-3.90;99.90
843;DHT22;407;48.884;9.126;2023-02-08T06:28:59;-4.10;99.90
843;DHT22;407;48.884;9.126;2023-02-08T06:31:24;-4.10;99.90
843;DHT22;407;48.884;9.126;2023-02-08T06:33:50;-4.10;99.90
843;DHT22;407;48.884;9.126;2023-02-08T06:36:16;-4.10;99.90
843;DHT22;407;48.884;9.126;2023-02-08T06:38:41;-3.90;99.90
843;DHT22;407;48.884;9.126;2023-02-08T06:41:07;-4.00;99.90
843;DHT22;407;48.884;9.126;2023-02-08T06:43:33;-4.00;99.90
843;DHT22;407;48.884;9.126;2023-02-08T06:45:59;-3.90;99.90
843;DHT22;407;48.884;9.126;2023-02-08T06:48:29;-3.90;1.00
843;DHT22;407;48.884;9.126;2023-02-08T06:50:55;-3.70;1.00
843;DHT22;407;48.884;9.126;2023-02-08T06:53:21;-3.60;1.00
843;DHT22;407;48.884;9.126;2023-02-08T06:55:48;-3.60;99.90
843;DHT22;407;48.884;9.126;2023-02-08T06:58:14;-3.60;99.90
843;DHT22;407;48.884;9.126;2023-02-08T07:00:39;-3.50;99.90
843;DHT22;407;48.884;9.126;2023-02-08T07:03:05;-3.50;99.90
843;DHT22;407;48.884;9.126;2023-02-08T07:05:33;-3.40;99.90
843;DHT22;407;48.884;9.126;2023-02-08T07:07:59;-3.30;99.90
843;DHT22;407;48.884;9.126;2023-02-08T07:10:25;-3.10;99.90
843;DHT22;407;48.884;9.126;2023-02-08T07:12:50;-3.10;43.60
843;DHT22;407;48.884;9.126;2023-02-08T07:15:16;-3.10;1.00
843;DHT22;407;48.884;9.126;2023-02-08T07:17:42;-3.10;1.00
843;DHT22;407;48.884;9.126;2023-02-08T07:20:08;-3.00;1.00
843;DHT22;407;48.884;9.126;2023-02-08T07:22:36;-2.90;1.00
843;DHT22;407;48.884;9.126;2023-02-08T07:25:02;-2.80;1.00
843;DHT22;407;48.884;9.126;2023-02-08T07:27:27;-2.60;1.00
843;DHT22;407;48.884;9.126;2023-02-08T07:29:53;-2.50;1.00
843;DHT22;407;48.884;9.126;2023-02-08T07:32:19;-2.30;1.00
843;DHT22;407;48.884;9.126;2023-02-08T07:34:44;-2.20;1.00
843;DHT22;407;48.884;9.126;2023-02-08T07:37:10;-2.10;1.00
843;DHT22;407;48.884;9.126;2023-02-08T07:39:36;-2.00;1.00
843;DHT22;407;48.884;9.126;2023-02-08T07:42:02;-1.80;1.00
843;DHT22;407;48.884;9.126;2023-02-08T07:44:29;-1.60;1.00
843;DHT22;407;48.884;9.126;2023-02-08T07:46:55;-1.20;1.00
843;DHT22;407;48.884;9.126;2023-02-08T07:49:20;-0.50;1.00
843;DHT22;407;48.884;9.126;2023-02-08T07:51:46;0.90;1.00
843;DHT22;407;48.884;9.126;2023-02-08T07:54:12;2.80;99.90
843;DHT22;407;48.884;9.126;2023-02-08T07:56:37;5.00;99.90
843;DHT22;407;48.884;9.126;2023-02-08T07:59:03;6.90;99.90
843;DHT22;407;48.884;9.126;2023-02-08T08:01:29;8.50;99.90
843;DHT22;407;48.884;9.126;2023-02-08T08:03:55;9.50;99.90
843;DHT22;407;48.884;9.126;2023-02-08T08:06:21;9.80;99.90
843;DHT22;407;48.884;9.126;2023-02-08T08:08:48;10.30;99.90
843;DHT22;407;48.884;9.126;2023-02-08T08:11:15;10.20;99.90
843;DHT22;407;48.884;9.126;2023-02-08T08:13:41;10.70;99.90
843;DHT22;407;48.884;9.126;2023-02-08T08:16:08;11.50;99.90
843;DHT22;407;48.884;9.126;2023-02-08T08:18:34;11.70;99.90
843;DHT22;407;48.884;9.126;2023-02-08T08:21:00;11.90;99.90
843;DHT22;407;48.884;9.126;2023-02-08T08:23:26;12.50;99.90
843;DHT22;407;48.884;9.126;2023-02-08T08:25:53;12.70;99.90
843;DHT22;407;48.884;9.126;2023-02-08T08:28:19;12.90;99.90
843;DHT22;407;48.884;9.126;2023-02-08T08:30:45;12.90;99.90
843;DHT22;407;48.884;9.126;2023-02-08T08:33:12;12.50;99.90
843;DHT22;407;48.884;9.126;2023-02-08T08:35:38;12.80;99.90
843;DHT22;407;48.884;9.126;2023-02-08T08:38:04;13.80;99.90
843;DHT22;407;48.884;9.126;2023-02-08T08:40:30;13.20;99.90
843;DHT22;407;48.884;9.126;2023-02-08T08:42:56;13.20;99.90
843;DHT22;407;48.884;9.126;2023-02-08T08:45:22;12.60;99.90
843;DHT22;407;48.884;9.126;2023-02-08T08:47:47;12.70;99.90
843;DHT22;407;48.884;9.126;2023-02-08T08:50:13;13.50;99.90
843;DHT22;407;48.884;9.126;2023-02-08T08:52:39;13.90;99.90
843;DHT22;407;48.884;9.126;2023-02-08T08:55:05;14.60;99.90
843;DHT22;407;48.884;9.126;2023-02-08T08:57:31;14.80;99.90
843;DHT22;407;48.884;9.126;2023-02-08T08:59:57;14.60;99.90
843;DHT22;407;48.884;9.126;2023-02-08T09:02:23;14.10;99.90
843;DHT22;407;48.884;9.126;2023-02-08T09:04:48;14.30;99.90
843;DHT22;407;48.884;9.126;2023-02-08T09:07:14;14.30;99.90
843;DHT22;407;48.884;9.126;2023-02-08T09:09:41;14.00;99.90
843;DHT22;407;48.884;9.126;2023-02-08T09:12:13;13.80;99.90
843;DHT22;407;48.884;9.126;2023-02-08T09:14:39;14.20;99.90
843;DHT22;407;48.884;9.126;2023-02-08T09:17:05;14.40;99.90
843;DHT22;407;48.884;9.126;2023-02-08T09:19:30;14.00;99.90
843;DHT22;407;48.884;9.126;2023-02-08T09:21:56;13.80;99.90
843;DHT22;407;48.884;9.126;2023-02-08T09:24:29;13.80;99.90
843;DHT22;407;48.884;9.126;2023-02-08T09:26:54;13.80;99.90
843;DHT22;407;48.884;9.126;2023-02-08T09:31:46;12.90;99.90
843;DHT22;407;48.884;9.126;2023-02-08T09:34:11;13.10;99.90
843;DHT22;407;48.884;9.126;2023-02-08T09:36:39;13.20;99.90
843;DHT22;407;48.884;9.126;2023-02-08T09:39:13;12.70;99.90
843;DHT22;407;48.884;9.126;2023-02-08T09:46:55;13.40;99.90
843;DHT22;407;48.884;9.126;2023-02-08T09:49:29;13.30;99.90
843;DHT22;407;48.884;9.126;2023-02-08T09:52:12;11.90;99.90
843;DHT22;407;48.884;9.126;2023-02-08T09:54:44;11.50;99.90
843;DHT22;407;48.884;9.126;2023-02-08T09:57:15;10.50;99.90
843;DHT22;407;48.884;9.126;2023-02-08T09:59:53;10.20;99.90
843;DHT22;407;48.884;9.126;2023-02-08T10:02:32;10.30;99.90
843;DHT22;407;48.884;9.126;2023-02-08T10:05:24;10.10;99.90
843;DHT22;407;48.884;9.126;2023-02-08T10:07:51;9.90;99.90
843;DHT22;407;48.884;9.126;2023-02-08T10:18:46;10.60;99.90
843;DHT22;407;48.884;9.126;2023-02-08T10:24:35;11.10;99.90
843;DHT22;407;48.884;9.126;2023-02-08T10:27:10;10.50;99.90
843;DHT22;407;48.884;9.126;2023-02-08T10:32:49;11.70;99.90
843;DHT22;407;48.884;9.126;2023-02-08T10:35:28;12.20;99.90
843;DHT22;407;48.884;9.126;2023-02-08T10:37:59;12.80;99.90
843;DHT22;407;48.884;9.126;2023-02-08T10:40:35;12.90;99.90
843;DHT22;407;48.884;9.126;2023-02-08T10:46:14;11.80;99.90
843;DHT22;407;48.884;9.126;2023-02-08T10:49:01;11.40;99.90
843;DHT22;407;48.884;9.126;2023-02-08T10:51:28;10.70;99.90
843;DHT22;407;48.884;9.126;2023-02-08T10:53:56;10.90;99.90
843;DHT22;407;48.884;9.126;2023-02-08T10:58:54;10.80;99.90
843;DHT22;407;48.884;9.126;2023-02-08T11:01:28;10.50;99.90
843;DHT22;407;48.884;9.126;2023-02-08T11:04:08;10.90;99.90
843;DHT22;407;48.884;9.126;2023-02-08T11:06:39;11.30;99.90
843;DHT22;407;48.884;9.126;2023-02-08T11:09:05;11.80;99.90
843;DHT22;407;48.884;9.126;2023-02-08T11:11:39;12.40;99.90
843;DHT22;407;48.884;9.126;2023-02-08T11:14:12;12.50;99.90
843;DHT22;407;48.884;9.126;2023-02-08T11:16:41;12.10;99.90
843;DHT22;407;48.884;9.126;2023-02-08T11:19:34;12.40;99.90
843;DHT22;407;48.884;9.126;2023-02-08T11:22:02;12.90;99.90
843;DHT22;407;48.884;9.126;2023-02-08T11:24:38;12.60;99.90
843;DHT22;407;48.884;9.126;2023-02-08T11:32:41;12.50;99.90
843;DHT22;407;48.884;9.126;2023-02-08T11:35:18;11.80;99.90
843;DHT22;407;48.884;9.126;2023-02-08T11:37:55;11.40;99.90
843;DHT22;407;48.884;9.126;2023-02-08T11:40:34;11.20;99.90
843;DHT22;407;48.884;9.126;2023-02-08T11:43:27;10.30;99.90
843;DHT22;407;48.884;9.126;2023-02-08T11:46:01;9.90;99.90
843;DHT22;407;48.884;9.126;2023-02-08T11:48:43;9.30;99.90
843;DHT22;407;48.884;9.126;2023-02-08T11:51:13;8.70;99.90
843;DHT22;407;48.884;9.126;2023-02-08T11:53:47;8.20;99.90
843;DHT22;407;48.884;9.126;2023-02-08T11:56:22;7.30;99.90
843;DHT22;407;48.884;9.126;2023-02-08T11:59:21;7.20;99.90
843;DHT22;407;48.884;9.126;2023-02-08T12:01:48;7.00;99.90
843;DHT22;407;48.884;9.126;2023-02-08T12:04:15;7.00;99.90
843;DHT22;407;48.884;9.126;2023-02-08T12:07:13;6.70;99.90
843;DHT22;407;48.884;9.126;2023-02-08T12:09:54;6.90;99.90
843;DHT22;407;48.884;9.126;2023-02-08T12:12:35;6.80;99.90
843;DHT22;407;48.884;9.126;2023-02-08T12:15:15;6.90;99.90
843;DHT22;407;48.884;9.126;2023-02-08T12:20:37;7.20;99.90
843;DHT22;407;48.884;9.126;2023-02-08T12:24:12;7.50;99.90
843;DHT22;407;48.884;9.126;2023-02-08T12:26:16;7.80;99.90
843;DHT22;407;48.884;9.126;2023-02-08T12:54:47;6.10;99.90
843;DHT22;407;48.884;9.126;2023-02-08T12:56:54;5.80;99.90
843;DHT22;407;48.884;9.126;2023-02-08T12:59:29;6.90;99.90
843;DHT22;407;48.884;9.126;2023-02-08T13:01:59;6.30;99.90
843;DHT22;407;48.884;9.126;2023-02-08T13:04:50;7.00;99.90
843;DHT22;407;48.884;9.126;2023-02-08T13:07:38;8.70;99.90
843;DHT22;407;48.884;9.126;2023-02-08T13:10:30;6.90;99.90
843;DHT22;407;48.884;9.126;2023-02-08T13:13:19;7.10;99.90
843;DHT22;407;48.884;9.126;2023-02-08T13:16:00;7.00;99.90
843;DHT22;407;48.884;9.126;2023-02-08T13:18:31;6.90;99.90
843;DHT22;407;48.884;9.126;2023-02-08T13:21:02;8.80;99.90
843;DHT22;407;48.884;9.126;2023-02-08T13:23:41;6.80;99.90
843;DHT22;407;48.884;9.126;2023-02-08T13:28:48;7.00;99.90
843;DHT22;407;48.884;9.126;2023-02-08T13:31:22;8.10;99.90
843;DHT22;407;48.884;9.126;2023-02-08T13:36:36;6.90;99.90
843;DHT22;407;48.884;9.126;2023-02-08T13:39:05;9.00;99.90
843;DHT22;407;48.884;9.126;2023-02-08T13:41:34;8.00;99.90
843;DHT22;407;48.884;9.126;2023-02-08T13:44:03;7.00;99.90
843;DHT22;407;48.884;9.126;2023-02-08T13:46:43;6.90;99.90
843;DHT22;407;48.884;9.126;2023-02-08T13:55:56;8.50;99.90
843;DHT22;407;48.884;9.126;2023-02-08T14:03:29;7.10;99.90
843;DHT22;407;48.884;9.126;2023-02-08T14:06:20;7.00;99.90
843;DHT22;407;48.884;9.126;2023-02-08T14:08:58;6.70;99.90
843;DHT22;407;48.884;9.126;2023-02-08T14:13:59;7.40;99.90
843;DHT22;407;48.884;9.126;2023-02-08T14:16:32;6.80;99.90
843;DHT22;407;48.884;9.126;2023-02-08T14:19:21;6.70;99.90
843;DHT22;407;48.884;9.126;2023-02-08T14:24:47;6.40;99.90
843;DHT22;407;48.884;9.126;2023-02-08T14:27:48;6.50;99.90
843;DHT22;407;48.884;9.126;2023-02-08T14:32:43;7.60;99.90
843;DHT22;407;48.884;9.126;2023-02-08T14:37:43;6.50;99.90
843;DHT22;407;48.884;9.126;2023-02-08T14:45:34;5.70;99.90
843;DHT22;407;48.884;9.126;2023-02-08T14:56:18;5.50;99.90
843;DHT22;407;48.884;9.126;2023-02-08T14:58:49;5.50;99.90
843;DHT22;407;48.884;9.126;2023-02-08T15:01:41;5.60;99.90
843;DHT22;407;48.884;9.126;2023-02-08T15:04:08;5.20;99.90
843;DHT22;407;48.884;9.126;2023-02-08T15:09:27;6.30;99.90
843;DHT22;407;48.884;9.126;2023-02-08T15:12:09;5.30;99.90
843;DHT22;407;48.884;9.126;2023-02-08T15:14:40;4.90;99.90
843;DHT22;407;48.884;9.126;2023-02-08T15:17:13;4.90;99.90
843;DHT22;407;48.884;9.126;2023-02-08T15:19:45;5.80;99.90
843;DHT22;407;48.884;9.126;2023-02-08T15:22:16;4.60;99.90
843;DHT22;407;48.884;9.126;2023-02-08T15:24:50;4.60;99.90
843;DHT22;407;48.884;9.126;2023-02-08T15:27:27;4.50;99.90
843;DHT22;407;48.884;9.126;2023-02-08T15:29:53;4.50;99.90
843;DHT22;407;48.884;9.126;2023-02-08T15:32:22;4.40;99.90
843;DHT22;407;48.884;9.126;2023-02-08T15:34:59;4.40;99.90
843;DHT22;407;48.884;9.126;2023-02-08T15:37:30;4.30;99.90
843;DHT22;407;48.884;9.126;2023-02-08T15:40:28;6.00;99.90
843;DHT22;407;48.884;9.126;2023-02-08T15:42:53;4.20;99.90
843;DHT22;407;48.884;9.126;2023-02-08T15:45:24;4.20;99.90
843;DHT22;407;48.884;9.126;2023-02-08T15:47:51;4.20;99.90
843;DHT22;407;48.884;9.126;2023-02-08T15:50:20;3.90;99.90
843;DHT22;407;48.884;9.126;2023-02-08T15:52:47;3.80;99.90
843;DHT22;407;48.884;9.126;2023-02-08T15:55:15;3.70;99.90
843;DHT22;407;48.884;9.126;2023-02-08T15:58:04;3.60;99.90
843;DHT22;407;48.884;9.126;2023-02-08T16:00:33;3.60;99.90
843;DHT22;407;48.884;9.126;2023-02-08T16:03:07;3.60;99.90
843;DHT22;407;48.884;9.126;2023-02-08T16:05:34;3.60;99.90
843;DHT22;407;48.884;9.126;2023-02-08T16:08:01;3.50;99.90
843;DHT22;407;48.884;9.126;2023-02-08T16:10:38;3.50;99.90
843;DHT22;407;48.884;9.126;2023-02-08T16:13:40;3.30;99.90
843;DHT22;407;48.884;9.126;2023-02-08T16:16:24;3.20;99.90
843;DHT22;407;48.884;9.126;2023-02-08T16:18:59;3.00;99.90
843;DHT22;407;48.884;9.126;2023-02-08T16:21:43;2.90;99.90
843;DHT22;407;48.884;9.126;2023-02-08T16:26:44;2.80;99.90
843;DHT22;407;48.884;9.126;2023-02-08T16:29:36;2.70;99.90
843;DHT22;407;48.884;9.126;2023-02-08T16:32:17;2.70;99.90
843;DHT22;407;48.884;9.126;2023-02-08T16:34:45;2.70;99.90
843;DHT22;407;48.884;9.126;2023-02-08T16:37:37;2.80;99.90
843;DHT22;407;48.884;9.126;2023-02-08T16:40:30;2.80;99.90
843;DHT22;407;48.884;9.126;2023-02-08T16:42:51;1.50;99.90
843;DHT22;407;48.884;9.126;2023-02-08T16:45:19;2.70;99.90
843;DHT22;407;48.884;9.126;2023-02-08T16:48:30;2.60;99.90
843;DHT22;407;48.884;9.126;2023-02-08T16:51:29;2.60;99.90
843;DHT22;407;48.884;9.126;2023-02-08T16:54:00;2.50;99.90
843;DHT22;407;48.884;9.126;2023-02-08T16:56:27;2.40;99.90
843;DHT22;407;48.884;9.126;2023-02-08T16:58:52;2.40;99.90
843;DHT22;407;48.884;9.126;2023-02-08T17:01:21;2.30;99.90
843;DHT22;407;48.884;9.126;2023-02-08T17:03:47;2.40;99.90
843;DHT22;407;48.884;9.126;2023-02-08T17:06:36;2.40;99.90
843;DHT22;407;48.884;9.126;2023-02-08T17:09:04;1.90;99.90
843;DHT22;407;48.884;9.126;2023-02-08T17:11:31;2.20;99.90
843;DHT22;407;48.884;9.126;2023-02-08T17:13:56;2.20;99.90
843;DHT22;407;48.884;9.126;2023-02-08T17:16:27;2.10;1.00
843;DHT22;407;48.884;9.126;2023-02-08T17:18:53;2.00;1.00
843;DHT22;407;48.884;9.126;2023-02-08T17:21:19;2.20;1.00
843;DHT22;407;48.884;9.126;2023-02-08T17:23:45;2.10;1.00
843;DHT22;407;48.884;9.126;2023-02-08T17:28:39;2.10;1.00
843;DHT22;407;48.884;9.126;2023-02-08T17:31:05;2.00;1.00
843;DHT22;407;48.884;9.126;2023-02-08T17:33:30;1.90;1.00
843;DHT22;407;48.884;9.126;2023-02-08T17:36:01;1.90;1.00
843;DHT22;407;48.884;9.126;2023-02-08T17:38:26;1.90;1.00
843;DHT22;407;48.884;9.126;2023-02-08T17:40:53;1.80;1.00
843;DHT22;407;48.884;9.126;2023-02-08T17:43:19;1.90;1.00
843;DHT22;407;48.884;9.126;2023-02-08T17:45:47;1.90;1.00
843;DHT22;407;48.884;9.126;2023-02-08T17:48:13;1.80;1.00
843;DHT22;407;48.884;9.126;2023-02-08T17:50:43;1.80;1.00
843;DHT22;407;48.884;9.126;2023-02-08T17:53:12;1.80;1.00
843;DHT22;407;48.884;9.126;2023-02-08T17:55:40;1.80;1.00
843;DHT22;407;48.884;9.126;2023-02-08T17:58:06;1.70;1.00
843;DHT22;407;48.884;9.126;2023-02-08T18:00:32;1.70;1.00
843;DHT22;407;48.884;9.126;2023-02-08T18:03:00;1.60;1.00
843;DHT22;407;48.884;9.126;2023-02-08T18:05:26;1.50;1.00
843;DHT22;407;48.884;9.126;2023-02-08T19:08:58;0.80;44.80
843;DHT22;407;48.884;9.126;2023-02-08T19:11:33;0.60;1.00
843;DHT22;407;48.884;9.126;2023-02-08T19:14:02;0.50;1.00
843;DHT22;407;48.884;9.126;2023-02-08T19:16:29;0.40;1.00
843;DHT22;407;48.884;9.126;2023-02-08T19:18:56;0.40;1.00
843;DHT22;407;48.884;9.126;2023-02-08T19:21:22;0.20;1.00
843;DHT22;407;48.884;9.126;2023-02-08T19:23:49;0.40;1.00
843;DHT22;407;48.884;9.126;2023-02-08T19:26:24;0.40;1.00
843;DHT22;407;48.884;9.126;2023-02-08T19:28:51;0.40;1.00
843;DHT22;407;48.884;9.126;2023-02-08T19:31:21;0.30;1.00
843;DHT22;407;48.884;9.126;2023-02-08T19:33:49;0.30;1.00
843;DHT22;407;48.884;9.126;2023-02-08T19:36:20;0.30;1.00
843;DHT22;407;48.884;9.126;2023-02-08T19:38:47;0.30;1.00
843;DHT22;407;48.884;9.126;2023-02-08T19:41:18;0.30;1.00
843;DHT22;407;48.884;9.126;2023-02-08T19:43:45;0.40;1.00
843;DHT22;407;48.884;9.126;2023-02-08T19:46:13;0.30;1.00
843;DHT22;407;48.884;9.126;2023-02-08T19:48:39;0.40;1.00
843;DHT22;407;48.884;9.126;2023-02-08T19:51:06;0.40;1.00
843;DHT22;407;48.884;9.126;2023-02-08T19:53:31;1.10;1.00
843;DHT22;407;48.884;9.126;2023-02-08T19:58:25;1.10;1.00
843;DHT22;407;48.884;9.126;2023-02-08T20:00:53;0.40;1.00
843;DHT22;407;48.884;9.126;2023-02-08T20:03:19;0.40;1.00
843;DHT22;407;48.884;9.126;2023-02-08T20:05:45;0.30;1.00
843;DHT22;407;48.884;9.126;2023-02-08T20:08:11;0.40;1.00
843;DHT22;407;48.884;9.126;2023-02-08T20:10:42;0.30;1.00
843;DHT22;407;48.884;9.126;2023-02-08T20:13:09;0.30;1.00
843;DHT22;407;48.884;9.126;2023-02-08T20:15:40;0.20;1.00
843;DHT22;407;48.884;9.126;2023-02-08T20:18:07;0.10;1.00
843;DHT22;407;48.884;9.126;2023-02-08T20:20:33;0.20;1.00
843;DHT22;407;48.884;9.126;2023-02-08T20:22:59;0.00;1.00
843;DHT22;407;48.884;9.126;2023-02-08T20:25:26;0.00;1.00
843;DHT22;407;48.884;9.126;2023-02-08T20:27:54;0.00;1.00
843;DHT22;407;48.884;9.126;2023-02-08T20:30:20;0.00;1.00
843;DHT22;407;48.884;9.126;2023-02-08T20:32:46;0.00;1.00
843;DHT22;407;48.884;9.126;2023-02-08T20:35:15;-0.10;1.00
843;DHT22;407;48.884;9.126;2023-02-08T20:37:42;-0.10;1.00
843;DHT22;407;48.884;9.126;2023-02-08T20:40:10;-0.20;1.00
843;DHT22;407;48.884;9.126;2023-02-08T20:42:36;-0.10;1.00
843;DHT22;407;48.884;9.126;2023-02-08T20:45:02;-0.20;1.00